createdAt,value
2022-09-02T00:02:57.381Z,97876.31
2022-09-02T00:07:02.491Z,97863.91
2022-09-02T00:11:07.434Z,97866.94
2022-09-02T00:15:11.502Z,97875.63
2022-09-02T00:19:15.796Z,97868.91
2022-09-02T00:23:20.854Z,97856.72
2022-09-02T00:27:24.444Z,97852.97
2022-09-02T00:31:29.315Z,97850.72
2022-09-02T00:35:34.125Z,97852.25
2022-09-02T00:39:38.616Z,97851.19
2022-09-02T00:43:45.267Z,97852.31
2022-09-02T00:47:51.124Z,97855.50
2022-09-02T00:51:58.986Z,97837.59
2022-09-02T00:56:04.438Z,97839.94
2022-09-02T01:00:11.854Z,97840.91
2022-09-02T01:04:15.694Z,97840.56
2022-09-02T01:08:26.080Z,97846.94
2022-09-02T01:12:32.131Z,97835.50
2022-09-02T01:16:42.172Z,97843.31
2022-09-02T01:20:45.653Z,97843.00
2022-09-02T01:24:51.078Z,97843.94
2022-09-02T01:28:54.234Z,97843.22
2022-09-02T01:32:57.790Z,97845.97
2022-09-02T01:37:01.421Z,97846.06
2022-09-02T01:41:06.590Z,97852.44
2022-09-02T01:45:10.872Z,97850.88
2022-09-02T01:49:14.922Z,97852.97
2022-09-02T01:53:18.997Z,97849.81
2022-09-02T01:57:25.120Z,97852.25
2022-09-02T02:01:28.437Z,97848.63
2022-09-02T02:05:34.074Z,97848.44
2022-09-02T02:09:38.153Z,97852.50
2022-09-02T02:13:43.406Z,97842.47
2022-09-02T02:17:46.555Z,97846.16
2022-09-02T02:21:50.362Z,97840.16
2022-09-02T02:25:54.381Z,97837.22
2022-09-02T02:29:59.454Z,97835.13
2022-09-02T02:34:04.009Z,97831.41
2022-09-02T02:38:07.651Z,97831.31
2022-09-02T02:42:13.997Z,97833.97
2022-09-02T02:46:19.290Z,97834.88
2022-09-02T02:50:25.801Z,97831.34
2022-09-02T02:54:34.917Z,97830.38
2022-09-02T02:58:39.269Z,97825.84
2022-09-02T03:02:44.446Z,97830.16
2022-09-02T03:06:48.025Z,97821.53
2022-09-02T03:10:54.917Z,97820.75
2022-09-02T03:14:59.024Z,97815.59
2022-09-02T03:19:04.284Z,97819.22
2022-09-02T03:23:07.587Z,97820.91
2022-09-02T03:27:11.867Z,97826.19
2022-09-02T03:31:17.530Z,97821.75
2022-09-02T03:35:23.959Z,97821.63
2022-09-02T03:39:27.792Z,97825.88
2022-09-02T03:43:31.567Z,97822.16
2022-09-02T03:47:35.192Z,97821.69
2022-09-02T03:51:42.371Z,97820.25
2022-09-02T03:55:46.198Z,97820.56
2022-09-02T03:59:50.126Z,97823.34
2022-09-02T04:03:54.477Z,97815.84
2022-09-02T04:07:59.190Z,97823.03
2022-09-02T04:12:02.678Z,97818.47
2022-09-02T04:16:10.469Z,97816.38
2022-09-02T04:20:14.859Z,97814.25
2022-09-02T04:24:19.853Z,97823.06
2022-09-02T04:28:23.497Z,97823.88
2022-09-02T04:32:27.249Z,97820.44
2022-09-02T04:36:31.110Z,97821.94
2022-09-02T04:40:36.197Z,97817.16
2022-09-02T04:44:40.063Z,97821.25
2022-09-02T04:48:44.010Z,97820.13
2022-09-02T04:52:47.703Z,97821.25
2022-09-02T04:56:52.860Z,97823.97
2022-09-02T05:00:56.375Z,97824.31
2022-09-02T05:04:59.869Z,97820.19
2022-09-02T05:09:04.047Z,97813.47
2022-09-02T05:13:09.369Z,97820.63
2022-09-02T05:17:14.797Z,97818.16
2022-09-02T05:21:18.773Z,97814.72
2022-09-02T05:25:22.588Z,97808.81
2022-09-02T05:29:27.543Z,97811.19
2022-09-02T05:33:31.239Z,97812.13
2022-09-02T05:37:37.360Z,97811.13
2022-09-02T05:41:40.924Z,97803.03
2022-09-02T05:45:45.633Z,97802.00
2022-09-02T05:49:49.224Z,97798.16
2022-09-02T05:53:55.070Z,97806.44
2022-09-02T05:57:58.799Z,97800.94
2022-09-02T06:02:03.407Z,97812.47
2022-09-02T06:06:07.062Z,97806.78
2022-09-02T06:10:10.869Z,97811.25
2022-09-02T06:14:15.588Z,97804.59
2022-09-02T06:18:20.358Z,97808.03
2022-09-02T06:22:23.970Z,97804.63
2022-09-02T06:26:27.986Z,97811.66
2022-09-02T06:30:31.320Z,97804.41
2022-09-02T06:34:36.365Z,97808.63
2022-09-02T06:38:45.635Z,97801.75
2022-09-02T06:42:50.468Z,97802.31
2022-09-02T06:46:56.837Z,97804.53
2022-09-02T06:51:04.158Z,97803.47
2022-09-02T06:55:08.243Z,97799.19
2022-09-02T06:59:12.594Z,97800.19
2022-09-02T07:03:33.145Z,97798.16
2022-09-02T07:07:39.254Z,97795.31
2022-09-02T07:11:42.958Z,97794.03
2022-09-02T07:15:46.188Z,97797.44
2022-09-02T07:19:49.565Z,97790.63
2022-09-02T07:23:54.690Z,97795.34
2022-09-02T07:27:57.958Z,97790.84
2022-09-02T07:32:01.499Z,97789.53
2022-09-02T07:36:06.324Z,97784.28
2022-09-02T07:40:19.610Z,97783.59
2022-09-02T07:44:23.572Z,97789.06
2022-09-02T07:48:27.455Z,97771.34
2022-09-02T07:52:30.512Z,97773.09
2022-09-02T07:56:35.549Z,97778.84
2022-09-02T08:00:40.076Z,97775.94
2022-09-02T08:04:44.402Z,97773.53
2022-09-02T08:08:48.216Z,97775.72
2022-09-02T08:16:57.784Z,97770.88
2022-09-02T08:21:01.055Z,97768.31
2022-09-02T08:25:04.819Z,97768.91
2022-09-02T08:29:10.160Z,97759.69
2022-09-02T08:33:15.212Z,97765.44
2022-09-02T08:37:19.737Z,97762.34
2022-09-02T08:41:24.724Z,97766.66
2022-09-02T08:45:33.058Z,97763.94
2022-09-02T08:49:43.677Z,97759.31
2022-09-02T08:53:52.712Z,97750.16
2022-09-02T08:57:57.402Z,97756.91
2022-09-02T09:02:07.145Z,97749.28
2022-09-02T09:06:21.842Z,97744.06
2022-09-02T09:10:31.029Z,97732.94
2022-09-02T09:14:41.861Z,97728.97
2022-09-02T09:18:56.831Z,97723.66
2022-09-02T09:23:04.629Z,97725.81
2022-09-02T09:27:13.932Z,97717.00
2022-09-02T09:31:20.243Z,97714.63
2022-09-02T09:35:24.999Z,97708.53
2022-09-02T09:39:31.500Z,97706.41
2022-09-02T09:43:35.029Z,97706.16
2022-09-02T09:47:38.598Z,97699.22
2022-09-02T09:51:55.422Z,97700.84
2022-09-02T09:56:06.047Z,97693.31
2022-09-02T10:00:16.925Z,97687.69
2022-09-02T10:04:42.766Z,97692.22
2022-09-02T10:08:54.702Z,97675.09
2022-09-02T10:13:03.036Z,97680.47
2022-09-02T10:17:29.213Z,97680.75
2022-09-02T10:21:50.182Z,97668.44
2022-09-02T10:26:07.775Z,97672.16
2022-09-02T10:30:21.122Z,97665.19
2022-09-02T10:34:32.440Z,97654.75
2022-09-02T10:38:41.490Z,97656.03
2022-09-02T10:43:06.300Z,97658.19
2022-09-02T10:47:16.811Z,97660.88
2022-09-02T10:51:29.535Z,97653.38
2022-09-02T10:55:43.204Z,97654.41
2022-09-02T10:59:55.232Z,97648.75
2022-09-02T11:04:06.907Z,97647.09
2022-09-02T11:08:14.529Z,97635.84
2022-09-02T11:12:22.752Z,97635.59
2022-09-02T11:16:32.624Z,97632.66
2022-09-02T11:20:43.486Z,97631.84
2022-09-02T11:24:53.886Z,97628.59
2022-09-02T11:29:06.083Z,97628.56
2022-09-02T11:33:17.888Z,97629.06
2022-09-02T11:37:32.640Z,97623.97
2022-09-02T11:41:56.827Z,97611.66
2022-09-02T11:46:21.745Z,97616.75
2022-09-02T11:50:42.102Z,97622.66
2022-09-02T11:54:51.186Z,97617.78
2022-09-02T11:58:54.990Z,97607.28
2022-09-02T12:03:37.749Z,97601.88
2022-09-02T12:07:48.624Z,97593.09
2022-09-02T12:11:55.336Z,97597.97
2022-09-02T12:16:32.017Z,97600.66
2022-09-02T12:21:18.609Z,97591.56
2022-09-02T12:25:49.608Z,97582.38
2022-09-02T12:29:56.800Z,97582.34
2022-09-02T12:34:03.284Z,97571.94
2022-09-02T12:38:30.496Z,97570.31
2022-09-02T12:42:34.884Z,97570.06
2022-09-02T12:47:01.671Z,97570.06
2022-09-02T12:51:05.489Z,97565.25
2022-09-02T12:55:17.212Z,97561.44
2022-09-02T12:59:30.524Z,97549.63
2022-09-02T13:03:58.840Z,97560.31
2022-09-02T13:08:48.550Z,97544.72
2022-09-02T13:13:10.033Z,97540.38
2022-09-02T13:17:36.059Z,97538.09
2022-09-02T13:22:14.135Z,97545.31
2022-09-02T13:26:48.937Z,97539.44
2022-09-02T13:31:09.612Z,97550.41
2022-09-02T13:35:24.368Z,97540.22
2022-09-02T13:39:29.223Z,97541.38
2022-09-02T13:43:34.423Z,97533.03
2022-09-02T13:47:38.831Z,97535.41
2022-09-02T13:51:45.593Z,97529.25
2022-09-02T13:55:51.536Z,97533.03
2022-09-02T13:59:58.086Z,97534.47
2022-09-02T14:08:15.648Z,97526.41
2022-09-02T14:16:34.310Z,97523.47
2022-09-02T14:20:39.603Z,97509.41
2022-09-02T14:24:43.234Z,97515.78
2022-09-02T14:28:53.554Z,97517.16
2022-09-02T14:33:19.338Z,97509.53
2022-09-02T14:37:24.895Z,97508.66
2022-09-02T14:41:31.544Z,97518.50
2022-09-02T14:45:39.406Z,97514.28
2022-09-02T14:49:50.924Z,97508.22
2022-09-02T14:53:55.738Z,97510.75
2022-09-02T14:58:04.014Z,97495.81
2022-09-02T15:02:07.282Z,97499.06
2022-09-02T15:06:15.242Z,97501.25
2022-09-02T15:10:19.563Z,97496.72
2022-09-02T15:14:23.087Z,97497.03
2022-09-02T15:18:26.981Z,97489.56
2022-09-02T15:22:31.637Z,97485.81
2022-09-02T15:26:35.096Z,97491.75
2022-09-02T15:30:40.245Z,97486.69
2022-09-02T15:34:43.964Z,97490.19
2022-09-02T15:38:48.652Z,97488.03
2022-09-02T15:42:52.309Z,97481.38
2022-09-02T15:46:55.771Z,97490.72
2022-09-02T15:50:58.977Z,97491.25
2022-09-02T15:55:03.717Z,97487.97
2022-09-02T15:59:10.642Z,97490.09
2022-09-02T16:03:14.207Z,97481.75
2022-09-02T16:07:17.434Z,97476.56
2022-09-02T16:11:22.386Z,97474.94
2022-09-02T16:15:25.788Z,97483.66
2022-09-02T16:19:30.649Z,97476.91
2022-09-02T16:23:34.467Z,97477.88
2022-09-02T16:27:55.561Z,97483.09
2022-09-02T16:32:23.642Z,97481.66
2022-09-02T16:36:29.094Z,97478.63
2022-09-02T16:40:36.622Z,97482.28
2022-09-02T16:44:42.442Z,97479.94
2022-09-02T16:48:45.926Z,97470.66
2022-09-02T16:52:49.729Z,97472.00
2022-09-02T16:56:52.773Z,97466.34
2022-09-02T17:00:57.874Z,97464.47
2022-09-02T17:05:01.518Z,97471.03
2022-09-02T17:09:05.307Z,97474.91
2022-09-02T17:13:09.183Z,97471.94
2022-09-02T17:17:15.661Z,97471.63
2022-09-02T17:21:23.784Z,97470.19
2022-09-02T17:25:27.293Z,97467.19
2022-09-02T17:33:58.302Z,97467.13
2022-09-02T17:38:02.031Z,97469.28
2022-09-02T17:42:06.721Z,97461.13
2022-09-02T17:46:11.106Z,97462.19
2022-09-02T17:50:18.075Z,97463.53
2022-09-02T17:54:22.184Z,97460.63
2022-09-02T17:58:26.537Z,97468.69
2022-09-02T18:02:55.734Z,97475.03
2022-09-02T18:07:06.748Z,97475.34
2022-09-02T18:11:10.481Z,97474.56
2022-09-02T18:15:19.047Z,97468.47
2022-09-02T18:19:39.262Z,97469.31
2022-09-02T18:24:00.625Z,97470.31
2022-09-02T18:28:14.808Z,97473.75
2022-09-02T18:32:29.722Z,97471.88
2022-09-02T18:36:44.023Z,97473.47
2022-09-02T18:41:07.142Z,97472.97
2022-09-02T18:45:21.507Z,97475.72
2022-09-02T18:49:27.502Z,97471.34
2022-09-02T18:53:35.997Z,97478.94
2022-09-02T18:57:56.387Z,97474.09
2022-09-02T19:02:08.502Z,97475.63
2022-09-02T19:06:18.797Z,97483.38
2022-09-02T19:10:23.617Z,97484.47
2022-09-02T19:14:31.471Z,97481.66
2022-09-02T19:18:34.557Z,97475.63
2022-09-02T19:22:41.486Z,97492.31
2022-09-02T19:26:47.653Z,97490.50
2022-09-02T19:30:55.462Z,97487.09
2022-09-02T19:35:01.418Z,97487.94
2022-09-02T19:39:04.878Z,97491.41
2022-09-02T19:43:10.333Z,97487.97
2022-09-02T19:51:38.968Z,97491.97
2022-09-02T19:55:43.738Z,97487.94
2022-09-02T19:59:46.896Z,97497.84
2022-09-02T20:03:52.675Z,97498.25
2022-09-02T20:07:56.616Z,97502.13
2022-09-02T20:12:00.301Z,97497.06
2022-09-02T20:20:19.557Z,97472.97
2022-09-02T20:24:27.246Z,97467.91
2022-09-02T20:28:35.332Z,97482.69
2022-09-02T20:32:47.901Z,97471.13
2022-09-02T20:37:00.301Z,97476.41
2022-09-02T20:41:11.465Z,97481.88
2022-09-02T20:45:20.901Z,97483.69
2022-09-02T20:49:54.655Z,97472.34
2022-09-02T20:54:14.153Z,97475.16
2022-09-02T20:58:28.381Z,97475.16
2022-09-02T21:02:37.126Z,97469.00
2022-09-02T21:06:45.165Z,97471.44
2022-09-02T21:10:53.980Z,97463.13
2022-09-02T21:15:03.805Z,97430.09
2022-09-02T21:19:15.022Z,97461.22
2022-09-02T21:23:27.416Z,97477.19
2022-09-02T21:27:36.882Z,97476.72
2022-09-02T21:31:43.942Z,97474.25
2022-09-02T21:35:50.559Z,97467.19
2022-09-02T21:39:58.613Z,97461.88
2022-09-02T21:44:11.824Z,97452.16
2022-09-02T21:48:34.633Z,97447.66
2022-09-02T21:52:59.891Z,97444.00
2022-09-02T21:57:17.068Z,97442.16
2022-09-02T22:01:44.636Z,97445.16
2022-09-02T22:05:54.734Z,97443.88
2022-09-02T22:10:09.607Z,97442.66
2022-09-02T22:14:16.284Z,97441.63
2022-09-02T22:18:30.756Z,97439.75
2022-09-02T22:22:41.172Z,97434.69
2022-09-02T22:26:50.574Z,97436.06
2022-09-02T22:31:00.579Z,97446.94
2022-09-02T22:35:10.515Z,97456.97
2022-09-02T22:39:16.936Z,97452.69
2022-09-02T22:43:25.500Z,97438.97
2022-09-02T22:47:49.460Z,97451.63
2022-09-02T22:52:21.916Z,97445.16
2022-09-02T22:56:35.411Z,97438.66
2022-09-02T23:00:47.937Z,97437.63
2022-09-02T23:05:37.768Z,97448.28
2022-09-02T23:09:44.465Z,97451.47
2022-09-02T23:13:59.212Z,97448.03
2022-09-02T23:18:13.704Z,97442.19
2022-09-02T23:22:25.406Z,97438.09
2022-09-02T23:26:41.655Z,97445.78
2022-09-02T23:30:54.464Z,97448.19
2022-09-02T23:35:13.345Z,97447.81
2022-09-02T23:39:44.922Z,97455.03
2022-09-02T23:43:49.738Z,97452.59
2022-09-02T23:48:14.291Z,97456.41
2022-09-02T23:52:26.867Z,97452.19
2022-09-02T23:56:46.610Z,97449.75
